Terminal Aerodrome Forecast
Issued by NWS

Home | Current Version | Previous Version | Text Only | Print | Product List | Glossary On
Versions: 1 2 3 4 5 6 7 8 9 10 11 12 13 14 15 16 17 18 19 20 21 22 23 24 25 26 27 28 29 30 31 32
000
FTAK31 PANC 272341
TAFAHO
TAF
PAHO 272341Z 2800/2824 30016G25KT P6SM FEW045 SCT200
     FM280400 35020G30KT P6SM SCT200
     FM281200 32010G20KT P6SM SKC
     FM282100 29010G18KT P6SM SKC=

USA.gov is the U.S. government's official web portal to all federal, state and local government web resources and services.